Cummaquid, Massachusetts
Current Conditions -  °F | °C
As of 10:56 AM on Thursday 27 Nov 2014 (Local Time) from KHYA Reporting Station
Overcast Overcast  
Wind Chill: 32°   Ceiling: 900
Heat Index: 38°   Visibility: 10mi
Dew Point: 35°   Wind: 8mph
Humidity: 89%   Direction: 290°WNW
Pressure: 29.91"   Gusts: NA
Location:  41.7°N, 70.27°W
Report Text: KHYA 271556Z 29007KT 10SM BKN009 OVC015 03/02 A2991 RMK AO2 RAB1459E40SNE1459 CIG 006V013 SLP130 P0001 T00330017
Loading
Personal Weather Stations






























Interactive Weather Map New forecast layout! Learn more

10-Day Weather Forecast

Advertisements
Track Severe Weather on mobile